Traverse City, MI

7:03 AM EST on February 21, 2017 (GMT -0500)
Cherry Capital | | Change Station

Elev 623 ft 44.74 °N, 85.58 °W | Updated 10 minutes ago

Overcast
Overcast
48 °F
Feels Like 48 °F
N
8
Wind Variable Wind from South

Today
High -- | Low -- °F
--% Chance of Precip.
Yesterday
High -- | Low -- °F
Precip. -- in
Pressure 29.81 in
Visibility 9.0 miles
Clouds Few 9000 ft
Overcast 12000 ft
Dew Point 44 °F
Humidity 86%
Rainfall 0.08 in
Snow Depth Not available.
7:32 AM 6:19 PM
Waning Crescent, 26% visible
METAR KTVC 211153Z 18007KT 150V220 9SM FEW090 OVC120 09/07 A2980 RMK AO2 RAE14 SLP093 P0000 60008 70008 T00890067 10111 20083 58008
Pressure 29.81 in
Visibility 9.0 miles
Clouds Few 9000 ft
Overcast 12000 ft
Dew Point 44 °F
Humidity 86%
Rainfall 0.08 in
Snow Depth Not available.
7:32 AM 6:19 PM
Waning Crescent, 26% visible
METAR KTVC 211153Z 18007KT 150V220 9SM FEW090 OVC120 09/07 A2980 RMK AO2 RAE14 SLP093 P0000 60008 70008 T00890067 10111 20083 58008

Get Your Daily Forecast Email!

Thanks for signing up!

Be on the lookout for a verification email in your inbox.

You'll start receiving the daily forecast at 8 AM.

×

10-Day Weather Forecast

Almanac

Astronomy

Feb. 21, 2017 Rise Set
Actual Time
Civil Twilight
Nautical Twilight
Astronomical Twilight
Moon
Length of Visible Light
Length of Day
Tomorrow will be .
, % of the Moon is Illuminated

Today's Extremes

State Highs State Lows

Community

WunderPhotos

Upload Photos

1,962,540 photos uploaded!

WunderBlog® & News

Nearby

Air Quality

  Air Quality AQ Index Pollutant
Not available.

Snow Depth

Station Depth Elevation

Earthquake Activity

City Distance Mag. Time & Date
Minimum magnitude displayed is 2.5.

Coastal Water Temperatures

Place Temperature

Stations

Nearby Weather Stations

Station Location Temp. Windchill Dew Point Humidity Wind Precip. Elev Updated Type
                   

Watches & Warnings

There are currently no watches in effect.